Time;durP1;ratioP1;P1;durP2;ratioP2;P2;SDS_P1;SDS_P2;PMS_P1;PMS_P2;Temp;Humidity;BMP_temperature;BMP_pressure;BME280_temperature;BME280_humidity;BME280_pressure;Samples;Min_cycle;Max_cycle;Signal;HPM_P1;HPM_P2
2021/05/30 00:00:10;;;;;;;16.23;13.10;;;14.80;99.90;;;;;;5097892;28;20622;-87
2021/05/30 00:02:36;;;;;;;20.40;13.73;;;14.80;99.90;;;;;;5098198;28;20254;-87
2021/05/30 00:05:03;;;;;;;15.75;13.38;;;14.80;99.90;;;;;;5097898;28;20181;-87
2021/05/30 00:07:28;;;;;;;18.20;13.30;;;14.70;99.90;;;;;;5096532;28;20276;-87
2021/05/30 00:09:55;;;;;;;15.45;12.80;;;14.70;99.90;;;;;;5099497;28;20203;-90
2021/05/30 00:12:21;;;;;;;14.70;13.13;;;14.60;99.90;;;;;;5110251;28;20170;-89
2021/05/30 00:14:47;;;;;;;14.38;12.57;;;14.50;99.90;;;;;;5109313;28;20170;-91
2021/05/30 00:17:14;;;;;;;21.25;13.57;;;14.50;99.90;;;;;;5107023;28;20630;-90
2021/05/30 00:19:39;;;;;;;22.13;13.82;;;14.30;99.90;;;;;;5088661;28;20220;-90
2021/05/30 00:22:05;;;;;;;17.38;13.38;;;14.20;99.90;;;;;;5104334;28;20197;-90
2021/05/30 00:24:31;;;;;;;23.15;14.48;;;14.10;99.90;;;;;;5106234;28;20174;-87
2021/05/30 00:26:57;;;;;;;20.88;14.40;;;14.20;99.90;;;;;;5100311;28;20182;-89
2021/05/30 00:29:23;;;;;;;25.27;14.32;;;13.90;99.90;;;;;;5100678;28;20169;-87
2021/05/30 00:31:48;;;;;;;24.92;14.15;;;13.90;99.90;;;;;;5097829;28;20276;-88
2021/05/30 00:34:14;;;;;;;22.52;14.35;;;13.90;99.90;;;;;;5111888;28;20573;-89
2021/05/30 00:36:40;;;;;;;18.13;15.05;;;13.80;99.90;;;;;;5117996;28;20165;-89
2021/05/30 00:39:05;;;;;;;17.65;14.13;;;13.80;99.90;;;;;;5118702;28;20204;-90
2021/05/30 00:41:31;;;;;;;20.63;15.35;;;13.80;99.90;;;;;;5119866;28;20204;-87
2021/05/30 00:43:57;;;;;;;19.95;15.50;;;13.80;99.90;;;;;;5085324;28;20170;-89
2021/05/30 00:46:24;;;;;;;16.60;14.13;;;13.80;99.90;;;;;;5096899;28;20170;-89
2021/05/30 00:48:50;;;;;;;20.05;13.88;;;13.70;99.90;;;;;;5099359;28;20166;-89
2021/05/30 00:51:16;;;;;;;24.50;15.75;;;13.60;99.90;;;;;;5100182;28;20184;-88
2021/05/30 00:53:43;;;;;;;16.95;15.02;;;13.60;99.90;;;;;;5098846;28;20204;-89
2021/05/30 00:56:18;;;;;;;18.55;14.55;;;13.60;99.90;;;;;;5096813;28;20174;-88
2021/05/30 00:58:44;;;;;;;21.85;16.00;;;13.70;99.90;;;;;;5097666;28;20154;-90
2021/05/30 01:01:10;;;;;;;24.13;15.75;;;13.60;99.90;;;;;;5079470;28;20193;-89
2021/05/30 01:03:37;;;;;;;23.20;16.25;;;13.40;99.90;;;;;;5097441;28;20178;-89
2021/05/30 01:06:03;;;;;;;23.73;15.88;;;13.30;99.90;;;;;;5096436;28;20188;-89
2021/05/30 01:08:29;;;;;;;21.52;15.65;;;13.20;99.90;;;;;;5098096;28;20180;-88
2021/05/30 01:10:58;;;;;;;24.55;16.70;;;13.20;99.90;;;;;;5099166;28;20180;-90
2021/05/30 01:13:25;;;;;;;25.17;17.42;;;13.30;99.90;;;;;;5097277;28;20194;-89
2021/05/30 01:15:52;;;;;;;24.63;16.08;;;13.20;99.90;;;;;;5097574;28;20622;-90
2021/05/30 01:18:20;;;;;;;24.20;17.20;;;13.20;99.90;;;;;;5098163;28;20740;-89
2021/05/30 01:20:46;;;;;;;25.45;16.42;;;13.10;99.90;;;;;;5098246;28;20174;-88
2021/05/30 01:23:14;;;;;;;21.80;15.80;;;13.00;99.90;;;;;;5096772;28;20173;-90
2021/05/30 01:25:40;;;;;;;22.50;16.67;;;13.00;99.90;;;;;;5097291;28;20185;-89
2021/05/30 01:28:06;;;;;;;27.17;18.23;;;13.10;99.90;;;;;;5097082;28;20202;-89
2021/05/30 01:30:33;;;;;;;20.33;16.45;;;13.20;99.90;;;;;;5102367;28;20186;-89
2021/05/30 01:32:59;;;;;;;29.73;17.73;;;13.20;99.90;;;;;;5107158;28;20202;-88
2021/05/30 01:35:25;;;;;;;22.10;16.58;;;13.20;99.90;;;;;;5104724;28;20170;-89
2021/05/30 01:37:51;;;;;;;21.40;17.55;;;13.30;99.90;;;;;;5104447;28;20170;-89
2021/05/30 01:40:18;;;;;;;27.40;18.20;;;13.30;99.90;;;;;;5101491;28;20168;-89
2021/05/30 01:42:47;;;;;;;23.00;17.83;;;13.20;99.90;;;;;;5099103;28;20170;-89
2021/05/30 01:45:13;;;;;;;24.23;17.58;;;13.00;99.90;;;;;;5101196;28;20663;-89
2021/05/30 01:47:41;;;;;;;24.15;16.67;;;13.00;99.90;;;;;;5102284;28;20161;-90
2021/05/30 01:50:11;;;;;;;26.20;18.45;;;13.00;99.90;;;;;;5104261;28;20158;-87
2021/05/30 01:52:37;;;;;;;22.55;17.52;;;13.00;99.90;;;;;;5100955;28;20204;-90
2021/05/30 01:55:05;;;;;;;29.90;17.92;;;13.10;99.90;;;;;;5098727;28;20259;-89
2021/05/30 01:57:39;;;;;;;25.65;18.98;;;13.00;99.90;;;;;;5104926;28;20162;-89
2021/05/30 02:00:06;;;;;;;26.42;18.35;;;13.10;99.90;;;;;;5104879;28;20177;-89
2021/05/30 02:02:32;;;;;;;26.98;19.15;;;13.20;99.90;;;;;;5101206;28;20273;-89
2021/05/30 02:04:57;;;;;;;25.17;17.67;;;13.10;99.90;;;;;;5084283;28;20197;-89
2021/05/30 02:07:23;;;;;;;27.67;18.38;;;13.10;99.90;;;;;;5099934;28;20170;-89
2021/05/30 02:09:49;;;;;;;25.70;18.90;;;13.00;99.90;;;;;;5100946;28;20532;-90
2021/05/30 02:12:15;;;;;;;25.88;18.73;;;13.00;99.90;;;;;;5084026;28;20194;-89
2021/05/30 02:14:41;;;;;;;27.85;18.70;;;13.00;99.90;;;;;;5102508;28;20177;-89
2021/05/30 02:17:06;;;;;;;24.38;18.40;;;13.00;99.90;;;;;;5099587;28;20200;-90
2021/05/30 02:19:32;;;;;;;26.65;18.35;;;12.90;99.90;;;;;;5102360;28;20169;-89
2021/05/30 02:22:00;;;;;;;33.60;20.27;;;12.70;99.90;;;;;;5098357;28;20178;-89
2021/05/30 02:24:26;;;;;;;25.73;18.75;;;12.70;99.90;;;;;;5100852;28;20166;-88
2021/05/30 02:26:51;;;;;;;28.20;19.25;;;12.60;99.90;;;;;;5099003;28;20191;-88
2021/05/30 02:29:28;;;;;;;27.95;19.40;;;12.60;99.90;;;;;;5102388;28;20629;-89
2021/05/30 02:31:53;;;;;;;27.60;18.60;;;12.60;99.90;;;;;;5102164;28;20255;-89
2021/05/30 02:34:19;;;;;;;33.20;19.92;;;12.60;99.90;;;;;;5099796;28;20182;-90
2021/05/30 02:36:45;;;;;;;27.13;18.83;;;12.60;99.90;;;;;;5100233;28;20201;-89
2021/05/30 02:39:10;;;;;;;25.05;18.75;;;12.60;99.90;;;;;;5099995;28;20198;-91
2021/05/30 02:41:36;;;;;;;31.25;20.85;;;12.70;99.90;;;;;;5100698;28;20534;-88
2021/05/30 02:44:01;;;;;;;25.50;20.50;;;12.70;99.90;;;;;;5103759;28;20177;-89
2021/05/30 02:46:27;;;;;;;32.15;21.00;;;12.70;99.90;;;;;;5101254;28;20170;-89
2021/05/30 02:48:53;;;;;;;32.42;20.73;;;12.80;99.90;;;;;;5102936;28;20177;-89
2021/05/30 02:51:18;;;;;;;27.92;20.05;;;12.80;99.90;;;;;;5101306;28;20170;-89
2021/05/30 02:53:44;;;;;;;32.55;20.40;;;12.80;99.90;;;;;;5101981;28;20178;-90
2021/05/30 02:56:09;;;;;;;27.92;19.67;;;12.70;99.90;;;;;;5100839;28;20186;-90
2021/05/30 02:58:35;;;;;;;32.92;20.38;;;12.70;99.90;;;;;;5100688;28;20194;-89
2021/05/30 03:01:01;;;;;;;27.35;20.15;;;12.70;99.90;;;;;;5081513;28;20189;-89
2021/05/30 03:03:26;;;;;;;40.13;20.80;;;12.70;99.90;;;;;;5099657;28;20177;-88
2021/05/30 03:05:52;;;;;;;33.38;21.55;;;12.70;99.90;;;;;;5099072;28;20242;-89
2021/05/30 03:08:18;;;;;;;26.05;19.73;;;12.70;99.90;;;;;;5098344;28;20201;-89
2021/05/30 03:10:44;;;;;;;33.90;21.17;;;12.70;99.90;;;;;;5100792;28;20675;-90
2021/05/30 03:13:09;;;;;;;30.23;20.45;;;12.70;99.90;;;;;;5098145;28;20206;-89
2021/05/30 03:15:35;;;;;;;27.35;19.75;;;12.80;99.90;;;;;;5094929;28;20192;-89
2021/05/30 03:18:01;;;;;;;32.28;20.35;;;12.80;99.90;;;;;;5097433;28;20618;-87
2021/05/30 03:20:26;;;;;;;30.67;20.92;;;12.80;99.90;;;;;;5100567;28;20634;-89
2021/05/30 03:22:52;;;;;;;26.30;19.75;;;12.70;99.90;;;;;;5081590;28;20256;-90
2021/05/30 03:25:18;;;;;;;31.13;20.88;;;12.60;99.90;;;;;;5099518;28;20192;-89
2021/05/30 03:27:43;;;;;;;35.22;22.90;;;12.60;99.90;;;;;;5101575;28;20173;-88
2021/05/30 03:30:10;;;;;;;32.92;21.77;;;12.60;99.90;;;;;;5098113;28;20162;-89
2021/05/30 03:32:36;;;;;;;31.63;21.75;;;12.50;99.90;;;;;;5099012;28;20201;-88
2021/05/30 03:35:03;;;;;;;36.78;23.70;;;12.50;99.90;;;;;;5100012;28;20170;-86
2021/05/30 03:37:29;;;;;;;28.15;20.38;;;12.50;99.90;;;;;;5098633;28;20166;-89
2021/05/30 03:39:58;;;;;;;28.23;20.63;;;12.50;99.90;;;;;;5098650;28;20216;-89
2021/05/30 03:42:28;;;;;;;31.00;21.08;;;12.40;99.90;;;;;;5099995;28;20541;-90
2021/05/30 03:44:59;;;;;;;32.95;21.40;;;12.40;99.90;;;;;;5097862;28;20166;-89
2021/05/30 03:47:25;;;;;;;37.50;22.52;;;12.40;99.90;;;;;;5099008;28;20162;-90
2021/05/30 03:49:51;;;;;;;31.25;20.73;;;12.40;99.90;;;;;;5101390;28;20223;-87
2021/05/30 03:52:17;;;;;;;31.15;20.70;;;12.30;99.90;;;;;;5100258;28;20289;-88
2021/05/30 03:54:43;;;;;;;30.83;21.88;;;12.30;99.90;;;;;;5099378;28;20213;-87
2021/05/30 03:57:09;;;;;;;31.92;22.10;;;12.40;99.90;;;;;;5100328;28;20230;-89
2021/05/30 03:59:35;;;;;;;30.90;21.38;;;12.50;99.90;;;;;;5098212;28;20285;-89
2021/05/30 04:02:01;;;;;;;31.40;22.25;;;12.60;99.90;;;;;;5098587;28;20222;-89
2021/05/30 04:04:26;;;;;;;35.80;22.00;;;12.70;99.90;;;;;;5100095;28;20529;-87
2021/05/30 04:06:52;;;;;;;33.13;22.45;;;12.70;99.90;;;;;;5104775;28;20181;-88
2021/05/30 04:09:17;;;;;;;30.17;22.58;;;12.50;99.90;;;;;;5100099;28;20248;-89
2021/05/30 04:11:43;;;;;;;38.13;22.75;;;12.40;99.90;;;;;;5098801;28;20193;-90
2021/05/30 04:14:09;;;;;;;32.22;23.20;;;12.50;99.90;;;;;;5098218;28;20634;-89
2021/05/30 04:16:34;;;;;;;26.60;21.15;;;12.50;99.90;;;;;;5102567;28;20174;-88
2021/05/30 04:19:00;;;;;;;29.98;21.63;;;12.40;99.90;;;;;;5086532;28;20174;-88
2021/05/30 04:21:26;;;;;;;32.75;22.48;;;12.30;99.90;;;;;;5101633;28;20209;-89
2021/05/30 04:23:51;;;;;;;32.20;21.80;;;12.20;99.90;;;;;;5101398;28;20190;-90
2021/05/30 04:26:17;;;;;;;31.35;22.15;;;12.10;99.90;;;;;;5102361;28;20645;-88
2021/05/30 04:28:44;;;;;;;28.23;22.67;;;12.00;99.90;;;;;;5104881;28;20184;-88
2021/05/30 04:31:10;;;;;;;28.95;22.23;;;12.00;99.90;;;;;;5099986;28;20519;-88
2021/05/30 04:33:36;;;;;;;30.15;23.10;;;11.90;99.90;;;;;;5101666;28;20231;-89
2021/05/30 04:36:02;;;;;;;29.48;22.60;;;12.10;99.90;;;;;;5099793;28;20191;-89
2021/05/30 04:38:27;;;;;;;29.13;22.85;;;12.20;99.90;;;;;;5097179;28;20261;-87
2021/05/30 04:40:53;;;;;;;29.83;21.42;;;12.30;99.90;;;;;;5101474;28;20178;-88
2021/05/30 04:43:18;;;;;;;30.33;22.88;;;12.60;99.90;;;;;;5103043;28;20629;-89
2021/05/30 04:45:44;;;;;;;30.15;23.05;;;12.60;99.90;;;;;;5114980;28;20177;-88
2021/05/30 04:48:10;;;;;;;29.20;22.63;;;12.60;99.90;;;;;;5119174;28;20178;-89
2021/05/30 04:50:36;;;;;;;29.02;22.63;;;12.70;99.90;;;;;;5119253;28;20174;-87
2021/05/30 04:53:02;;;;;;;28.75;22.60;;;13.10;99.90;;;;;;5119096;28;20217;-87
2021/05/30 04:55:27;;;;;;;29.27;20.75;;;13.00;99.90;;;;;;5118203;28;20703;-87
2021/05/30 04:57:53;;;;;;;24.98;21.25;;;13.20;99.90;;;;;;5099046;28;20630;-88
2021/05/30 05:00:19;;;;;;;26.63;20.48;;;13.50;99.90;;;;;;5104584;28;20166;-89
2021/05/30 05:02:45;;;;;;;25.80;19.65;;;13.90;99.90;;;;;;5100134;28;20197;-91
2021/05/30 05:05:11;;;;;;;24.05;19.80;;;14.20;99.90;;;;;;5100425;28;20162;-88
2021/05/30 05:07:40;;;;;;;28.10;20.40;;;14.00;99.90;;;;;;5100824;28;20171;-92
2021/05/30 05:10:07;;;;;;;24.55;19.60;;;14.00;99.90;;;;;;5099315;28;20195;-89
2021/05/30 05:12:33;;;;;;;22.90;19.90;;;13.80;99.90;;;;;;5099261;28;20193;-90
2021/05/30 05:14:59;;;;;;;22.67;20.27;;;13.90;99.90;;;;;;5099539;28;20231;-89
2021/05/30 05:17:25;;;;;;;24.15;20.40;;;14.10;99.90;;;;;;5104987;28;20166;-86
2021/05/30 05:19:50;;;;;;;25.38;18.40;;;14.40;99.90;;;;;;5103781;28;20174;-92
2021/05/30 05:22:16;;;;;;;21.27;18.40;;;14.80;99.90;;;;;;5104381;28;20169;-90
2021/05/30 05:24:42;;;;;;;20.60;18.50;;;15.50;99.90;;;;;;5102333;28;20650;-90
2021/05/30 05:27:11;;;;;;;19.25;17.13;;;16.30;99.90;;;;;;5081024;28;20626;-90
2021/05/30 05:29:36;;;;;;;20.10;18.05;;;16.50;99.90;;;;;;5098814;28;20166;-90
2021/05/30 05:32:03;;;;;;;22.42;16.70;;;17.40;99.90;;;;;;5096458;28;20560;-91
2021/05/30 05:34:28;;;;;;;23.05;17.15;;;18.70;99.90;;;;;;5099345;28;20519;-91
2021/05/30 05:36:54;;;;;;;18.35;16.52;;;18.90;99.90;;;;;;5099116;28;20178;-90
2021/05/30 05:39:20;;;;;;;17.75;15.60;;;19.30;99.90;;;;;;5099449;28;20170;-90
2021/05/30 05:41:48;;;;;;;20.77;16.17;;;19.20;99.90;;;;;;5098168;28;20178;-90
2021/05/30 05:44:14;;;;;;;18.50;16.65;;;18.60;99.90;;;;;;5082898;28;20618;-92
2021/05/30 05:46:39;;;;;;;18.15;16.25;;;19.10;99.90;;;;;;5098274;28;20173;-91
2021/05/30 05:49:05;;;;;;;28.83;15.43;;;19.80;99.90;;;;;;5096275;28;20224;-90
2021/05/30 05:51:30;;;;;;;17.33;15.65;;;21.00;99.90;;;;;;5096604;28;20162;-91
2021/05/30 05:53:56;;;;;;;19.02;15.80;;;22.00;99.90;;;;;;5096812;28;20178;-91
2021/05/30 05:56:22;;;;;;;21.17;15.38;;;23.10;99.90;;;;;;5098373;28;20540;-93
2021/05/30 05:58:47;;;;;;;17.05;14.00;;;23.10;99.90;;;;;;5079892;28;20178;-90
2021/05/30 06:01:13;;;;;;;17.33;15.50;;;23.60;99.90;;;;;;5095210;28;20638;-91
2021/05/30 06:03:39;;;;;;;18.13;15.43;;;24.20;99.90;;;;;;5096179;28;20626;-89
2021/05/30 06:06:05;;;;;;;15.18;13.88;;;24.70;99.90;;;;;;5099336;28;20168;-92
2021/05/30 06:08:31;;;;;;;16.08;14.68;;;25.70;99.90;;;;;;5098715;28;20174;-91
2021/05/30 06:10:57;;;;;;;16.15;14.60;;;25.80;99.90;;;;;;5096451;28;20180;-91
2021/05/30 06:13:23;;;;;;;14.32;13.10;;;26.00;99.90;;;;;;5097255;28;20290;-93
2021/05/30 06:15:48;;;;;;;14.98;13.48;;;26.20;99.90;;;;;;5099720;28;20193;-92
2021/05/30 06:18:16;;;;;;;15.13;13.73;;;26.10;99.90;;;;;;5096285;28;20194;-91
2021/05/30 06:20:44;;;;;;;15.02;13.82;;;27.60;99.90;;;;;;5093956;28;20211;-92
2021/05/30 06:23:10;;;;;;;14.18;12.88;;;28.40;99.90;;;;;;5096904;28;20249;-90
2021/05/30 06:25:36;;;;;;;14.43;13.18;;;26.70;99.90;;;;;;5093991;28;20473;-89
2021/05/30 06:28:03;;;;;;;14.45;13.30;;;28.40;99.90;;;;;;5095394;28;20169;-90
2021/05/30 06:30:32;;;;;;;14.23;12.07;;;29.60;99.90;;;;;;5096093;28;20205;-90
2021/05/30 06:32:58;;;;;;;14.10;12.70;;;30.10;98.80;;;;;;5097565;28;20602;-92
2021/05/30 06:35:26;;;;;;;14.38;13.10;;;31.20;98.10;;;;;;5061209;28;20184;-91
2021/05/30 06:37:52;;;;;;;13.10;12.00;;;31.90;95.20;;;;;;5095178;28;20158;-89
2021/05/30 06:40:17;;;;;;;12.82;11.52;;;32.60;94.40;;;;;;5096467;28;20626;-90
2021/05/30 06:42:43;;;;;;;13.40;12.00;;;31.70;92.50;;;;;;5095753;28;20170;-87
2021/05/30 06:45:09;;;;;;;12.98;11.82;;;31.10;93.40;;;;;;5093615;28;20539;-88
2021/05/30 06:47:35;;;;;;;13.60;12.10;;;30.10;93.60;;;;;;5094353;28;20169;-88
2021/05/30 06:50:01;;;;;;;11.95;10.95;;;30.80;93.20;;;;;;5093243;28;20574;-88
2021/05/30 06:52:27;;;;;;;12.18;11.25;;;30.50;92.80;;;;;;5094161;28;20708;-88
2021/05/30 06:54:52;;;;;;;13.80;12.57;;;30.50;93.00;;;;;;5092759;28;20178;-89
2021/05/30 06:57:18;;;;;;;12.98;11.88;;;31.10;92.80;;;;;;5095468;28;20242;-89
2021/05/30 06:59:45;;;;;;;15.02;11.43;;;31.40;92.10;;;;;;5094949;28;20545;-86
2021/05/30 07:02:11;;;;;;;12.70;11.23;;;32.50;91.20;;;;;;5094375;28;20731;-88
2021/05/30 07:04:38;;;;;;;12.55;11.55;;;32.60;91.00;;;;;;5096620;28;20190;-88
2021/05/30 07:07:04;;;;;;;12.77;11.68;;;34.10;89.20;;;;;;5094624;28;20218;-88
2021/05/30 07:09:29;;;;;;;10.95;9.93;;;33.40;86.40;;;;;;5096454;28;20205;-88
2021/05/30 07:11:55;;;;;;;11.73;10.70;;;31.90;90.40;;;;;;5094094;28;20196;-88
2021/05/30 07:14:21;;;;;;;12.27;10.93;;;32.50;87.60;;;;;;5093113;28;20173;-89
2021/05/30 07:16:46;;;;;;;11.35;10.45;;;33.70;87.00;;;;;;5094486;28;20173;-90
2021/05/30 07:19:12;;;;;;;12.05;11.15;;;34.30;83.40;;;;;;5094540;28;20529;-89
2021/05/30 07:21:38;;;;;;;11.73;10.82;;;33.10;85.70;;;;;;5094274;28;20166;-88
2021/05/30 07:24:04;;;;;;;11.18;9.52;;;34.70;85.00;;;;;;5076262;28;20169;-92
2021/05/30 07:26:30;;;;;;;12.25;10.95;;;36.00;82.00;;;;;;5093454;28;20166;-92
2021/05/30 07:28:56;;;;;;;11.45;10.45;;;36.50;79.30;;;;;;5093512;28;20188;-88
2021/05/30 07:31:21;;;;;;;12.60;9.82;;;36.40;77.10;;;;;;5075652;28;20172;-88
2021/05/30 07:33:47;;;;;;;10.60;9.60;;;36.00;78.10;;;;;;5093985;28;20209;-89
2021/05/30 07:36:14;;;;;;;10.55;9.55;;;36.30;75.80;;;;;;5093749;28;20180;-86
2021/05/30 07:38:40;;;;;;;11.75;10.75;;;35.60;77.50;;;;;;5093120;28;20241;-86
2021/05/30 07:41:05;;;;;;;12.50;9.38;;;36.90;76.40;;;;;;5093889;28;20177;-88
2021/05/30 07:43:31;;;;;;;10.65;9.75;;;37.30;74.00;;;;;;5093780;28;20161;-88
2021/05/30 07:45:57;;;;;;;9.63;8.80;;;37.90;73.40;;;;;;5092474;28;20185;-89
2021/05/30 07:48:22;;;;;;;10.02;9.13;;;36.60;70.50;;;;;;5092620;28;20180;-88
2021/05/30 07:50:49;;;;;;;10.07;8.77;;;35.40;74.50;;;;;;5092836;28;20174;-87
2021/05/30 07:53:15;;;;;;;9.95;9.05;;;33.70;76.80;;;;;;5094884;28;20204;-90
2021/05/30 07:55:41;;;;;;;17.08;10.07;;;33.80;74.80;;;;;;5095485;28;20184;-90
2021/05/30 07:58:07;;;;;;;11.15;10.07;;;32.80;74.90;;;;;;5094741;28;20162;-88
2021/05/30 08:00:33;;;;;;;10.82;8.52;;;33.30;78.20;;;;;;5092856;28;20180;-88
2021/05/30 08:02:58;;;;;;;9.93;9.15;;;35.40;76.10;;;;;;5094079;28;20170;-91
2021/05/30 08:05:24;;;;;;;10.13;9.13;;;37.10;72.10;;;;;;5097875;28;20165;-91
2021/05/30 08:07:51;;;;;;;9.18;8.45;;;37.90;71.90;;;;;;5085949;28;20174;-90
2021/05/30 08:10:20;;;;;;;8.55;7.78;;;38.70;69.70;;;;;;5100278;28;20630;-89
2021/05/30 08:12:45;;;;;;;8.55;7.95;;;37.80;68.30;;;;;;5098603;28;20203;-89
2021/05/30 08:15:12;;;;;;;9.05;8.35;;;38.10;68.90;;;;;;5081426;28;20205;-86
2021/05/30 08:17:38;;;;;;;7.72;7.15;;;39.20;68.20;;;;;;5098054;28;20166;-85
2021/05/30 08:20:06;;;;;;;8.82;8.07;;;39.60;66.90;;;;;;5079339;28;20170;-84
2021/05/30 08:22:32;;;;;;;9.27;8.48;;;40.00;64.00;;;;;;5098164;28;20169;-84
2021/05/30 08:24:58;;;;;;;9.52;8.55;;;39.90;62.50;;;;;;5096527;28;20226;-86
2021/05/30 08:27:24;;;;;;;8.63;8.02;;;39.60;62.80;;;;;;5093070;28;20174;-87
2021/05/30 08:29:50;;;;;;;8.88;8.10;;;36.70;64.50;;;;;;5082940;28;20170;-87
2021/05/30 08:32:15;;;;;;;8.57;7.88;;;35.30;69.80;;;;;;5094127;28;20229;-89
2021/05/30 08:34:41;;;;;;;8.25;7.65;;;34.50;71.00;;;;;;5076806;28;20174;-90
2021/05/30 08:37:07;;;;;;;9.07;8.02;;;35.40;68.30;;;;;;5083935;28;20165;-90
2021/05/30 08:39:33;;;;;;;8.98;8.25;;;33.90;70.60;;;;;;5096231;28;20200;-89
2021/05/30 08:41:59;;;;;;;8.77;8.07;;;35.20;68.50;;;;;;5096064;28;20170;-87
2021/05/30 08:44:25;;;;;;;8.55;7.80;;;34.80;68.70;;;;;;5094935;28;20525;-87
2021/05/30 08:46:50;;;;;;;7.90;7.32;;;35.90;69.00;;;;;;5096047;28;20197;-87
2021/05/30 08:49:16;;;;;;;7.63;7.07;;;35.90;67.50;;;;;;5095594;28;20169;-87
2021/05/30 08:51:42;;;;;;;8.25;7.55;;;34.50;69.40;;;;;;5096665;28;20192;-86
2021/05/30 08:54:19;;;;;;;9.02;7.85;;;36.10;67.20;;;;;;5090890;28;20209;-89
2021/05/30 08:56:47;;;;;;;7.25;6.65;;;37.30;67.00;;;;;;5091382;28;20625;-92
2021/05/30 08:59:37;;;;;;;6.93;6.22;;;36.70;64.60;;;;;;5085046;28;20168;-90
2021/05/30 09:02:12;;;;;;;7.43;6.57;;;34.80;67.80;;;;;;5079571;28;20197;-89
2021/05/30 09:04:44;;;;;;;8.77;7.45;;;34.70;69.40;;;;;;5097159;28;20160;-90
2021/05/30 09:07:09;;;;;;;9.65;6.65;;;36.70;67.50;;;;;;5096145;28;20169;-92
2021/05/30 09:09:37;;;;;;;9.18;7.18;;;37.40;65.10;;;;;;5078618;28;20223;-91
2021/05/30 09:12:03;;;;;;;7.03;6.32;;;34.00;66.90;;;;;;5096428;28;20201;-92
2021/05/30 09:14:32;;;;;;;7.95;5.82;;;33.70;68.40;;;;;;5095253;28;20165;-93
2021/05/30 09:17:07;;;;;;;6.40;5.75;;;33.50;69.30;;;;;;5095729;28;20162;-89
2021/05/30 09:19:54;;;;;;;6.97;6.38;;;33.70;69.70;;;;;;5075849;28;20191;-90
2021/05/30 09:22:26;;;;;;;5.88;5.43;;;31.90;67.00;;;;;;5076209;28;20645;-91
2021/05/30 09:24:52;;;;;;;7.97;5.45;;;32.90;71.20;;;;;;5075675;28;20174;-91
2021/05/30 09:27:20;;;;;;;6.65;4.57;;;35.10;68.20;;;;;;5091555;28;20170;-89
2021/05/30 09:30:06;;;;;;;5.15;4.75;;;35.60;64.80;;;;;;5075568;28;20190;-87
2021/05/30 09:32:31;;;;;;;5.97;5.57;;;33.50;63.30;;;;;;5075589;28;20251;-86
2021/05/30 09:35:03;;;;;;;7.65;5.32;;;31.60;69.00;;;;;;5086492;28;20173;-87
2021/05/30 09:37:29;;;;;;;5.82;5.32;;;32.10;71.00;;;;;;5078677;28;20178;-89
2021/05/30 09:39:54;;;;;;;5.97;5.30;;;33.50;67.70;;;;;;5074949;28;20170;-87
2021/05/30 09:42:37;;;;;;;8.70;5.50;;;35.70;67.60;;;;;;5095772;28;20173;-91
2021/05/30 09:45:11;;;;;;;9.68;8.77;;;33.00;65.80;;;;;;5094727;28;20176;-86
2021/05/30 09:47:38;;;;;;;4.97;4.57;;;33.60;67.40;;;;;;5093793;28;20162;-86
2021/05/30 09:50:07;;;;;;;6.47;5.30;;;33.30;64.80;;;;;;5094532;28;20181;-87
2021/05/30 09:52:43;;;;;;;6.22;5.72;;;34.00;66.10;;;;;;5094026;28;20338;-90
2021/05/30 09:55:12;;;;;;;6.55;5.35;;;33.30;65.20;;;;;;5091922;28;20645;-88
2021/05/30 09:57:39;;;;;;;4.68;4.30;;;31.70;68.50;;;;;;5091537;28;20166;-88
2021/05/30 10:00:05;;;;;;;6.72;6.22;;;31.50;70.00;;;;;;5086397;28;20170;-89
2021/05/30 10:02:32;;;;;;;5.63;5.13;;;31.40;69.00;;;;;;5080966;28;20198;-87
2021/05/30 10:04:59;;;;;;;5.32;4.93;;;30.90;70.90;;;;;;5094263;28;20177;-86
2021/05/30 10:07:26;;;;;;;5.47;4.30;;;31.80;67.70;;;;;;5091003;28;20205;-86
2021/05/30 10:09:52;;;;;;;4.90;4.60;;;31.60;69.40;;;;;;5093199;28;20178;-85
2021/05/30 10:12:19;;;;;;;4.47;4.18;;;32.20;66.50;;;;;;5085310;28;20259;-91
2021/05/30 10:14:44;;;;;;;4.97;4.47;;;33.90;66.80;;;;;;5087642;28;20178;-88
2021/05/30 10:17:12;;;;;;;5.05;4.55;;;34.10;64.10;;;;;;5094638;28;20188;-86
2021/05/30 10:19:45;;;;;;;5.13;4.72;;;34.70;65.00;;;;;;5107338;28;20184;-85
2021/05/30 10:22:11;;;;;;;4.28;3.97;;;34.80;61.90;;;;;;5094432;28;20172;-87
2021/05/30 10:24:41;;;;;;;5.90;5.40;;;33.30;62.70;;;;;;5093341;28;20533;-88
2021/05/30 10:27:24;;;;;;;4.10;3.90;;;31.20;67.10;;;;;;5092783;28;20181;-86
2021/05/30 10:30:13;;;;;;;6.00;5.60;;;33.30;68.10;;;;;;5073445;28;20219;-86
2021/05/30 10:33:07;;;;;;;5.25;4.85;;;32.50;66.60;;;;;;5092555;28;20236;-85
2021/05/30 10:35:33;;;;;;;6.25;5.60;;;32.00;69.30;;;;;;5086600;28;20267;-84
2021/05/30 10:37:59;;;;;;;5.28;4.88;;;31.70;67.00;;;;;;5094045;28;20216;-82
2021/05/30 10:40:35;;;;;;;7.93;5.47;;;32.40;67.80;;;;;;5093244;28;20182;-86
2021/05/30 10:43:10;;;;;;;6.03;5.30;;;31.50;68.40;;;;;;5091858;28;20602;-87
2021/05/30 10:45:42;;;;;;;6.53;4.20;;;32.70;69.30;;;;;;5093789;28;20168;-84
2021/05/30 10:48:07;;;;;;;3.78;3.47;;;33.30;64.30;;;;;;5098181;28;20172;-87
2021/05/30 10:51:33;;;;;;;5.38;3.83;;;32.20;66.00;;;;;;5093610;28;20201;-85
2021/05/30 10:53:38;;;;;;;5.53;4.30;;;31.60;68.10;;;;;;5088057;28;20270;-85
2021/05/30 10:56:24;;;;;;;4.78;4.28;;;31.60;69.10;;;;;;5092165;28;20216;-86
2021/05/30 10:59:12;;;;;;;6.28;5.63;;;32.00;68.10;;;;;;5091202;28;20183;-85
2021/05/30 11:01:44;;;;;;;5.63;5.10;;;29.40;71.40;;;;;;5092320;28;20193;-85
2021/05/30 11:06:54;;;;;;;6.95;6.35;;;30.80;70.60;;;;;;5093136;28;20197;-85
2021/05/30 11:09:21;;;;;;;5.72;5.22;;;30.50;69.40;;;;;;5092892;28;20173;-85
2021/05/30 11:12:19;;;;;;;5.80;5.30;;;32.40;71.40;;;;;;5090569;28;20199;-85
2021/05/30 11:15:10;;;;;;;5.68;5.20;;;33.50;66.60;;;;;;5092576;28;20219;-86
2021/05/30 11:17:47;;;;;;;5.85;5.35;;;32.80;69.50;;;;;;5090391;28;20182;-85
2021/05/30 11:20:23;;;;;;;4.55;4.03;;;34.80;66.60;;;;;;5092639;28;20254;-85
2021/05/30 11:23:10;;;;;;;3.63;3.33;;;35.70;65.20;;;;;;5093597;28;20173;-84
2021/05/30 11:25:35;;;;;;;4.03;3.33;;;34.80;63.10;;;;;;5091944;28;20692;-85
2021/05/30 11:28:04;;;;;;;3.60;3.30;;;32.90;64.10;;;;;;5092576;28;20181;-84
2021/05/30 11:30:39;;;;;;;3.58;3.35;;;32.70;64.80;;;;;;5091502;28;20235;-86
2021/05/30 11:33:06;;;;;;;2.90;2.70;;;31.30;65.50;;;;;;5092650;28;20232;-87
2021/05/30 11:35:32;;;;;;;3.75;2.97;;;30.50;67.70;;;;;;5092835;28;20634;-84
2021/05/30 11:37:58;;;;;;;5.97;2.80;;;30.00;66.90;;;;;;5093202;28;20262;-85
2021/05/30 11:40:25;;;;;;;3.42;2.70;;;32.10;66.80;;;;;;5095765;28;20260;-84
2021/05/30 11:42:52;;;;;;;3.25;2.95;;;32.40;65.70;;;;;;5094885;28;20652;-86
2021/05/30 11:45:38;;;;;;;4.00;3.10;;;32.00;65.70;;;;;;5098195;28;20540;-84
2021/05/30 11:48:14;;;;;;;3.60;3.28;;;31.90;63.00;;;;;;5094774;28;20615;-84
2021/05/30 11:50:53;;;;;;;4.00;3.28;;;29.50;67.20;;;;;;5095205;28;20185;-83
2021/05/30 11:53:35;;;;;;;3.33;3.05;;;29.00;69.70;;;;;;5097354;28;20190;-83
2021/05/30 11:56:05;;;;;;;6.13;3.05;;;29.20;68.10;;;;;;5096845;28;20186;-83
2021/05/30 11:58:32;;;;;;;3.55;3.25;;;31.00;64.80;;;;;;5095702;28;20169;-84
2021/05/30 12:01:02;;;;;;;3.35;2.60;;;31.50;66.70;;;;;;5093568;28;20277;-86
2021/05/30 12:03:29;;;;;;;2.90;2.53;;;31.50;63.00;;;;;;5095251;28;20242;-85
2021/05/30 12:06:00;;;;;;;3.00;2.70;;;30.20;64.80;;;;;;5097149;28;20169;-85
2021/05/30 12:08:26;;;;;;;3.75;2.92;;;31.00;65.80;;;;;;5096406;28;20181;-86
2021/05/30 12:10:54;;;;;;;2.88;2.45;;;31.40;65.20;;;;;;5095123;28;20174;-86
2021/05/30 12:13:38;;;;;;;2.72;2.53;;;30.40;62.30;;;;;;5096558;28;20665;-86
2021/05/30 12:16:19;;;;;;;2.25;2.15;;;30.00;66.10;;;;;;5096146;28;20192;-87
2021/05/30 12:18:53;;;;;;;2.45;2.22;;;29.50;65.00;;;;;;5095715;28;20174;-86
2021/05/30 12:21:19;;;;;;;2.45;2.17;;;27.70;66.70;;;;;;5092585;28;20194;-86
2021/05/30 12:23:45;;;;;;;2.97;2.78;;;26.70;68.60;;;;;;5095387;28;20184;-86
2021/05/30 12:26:12;;;;;;;4.13;1.95;;;26.20;68.90;;;;;;5095800;28;20182;-86
2021/05/30 12:28:42;;;;;;;3.63;2.50;;;25.60;70.70;;;;;;5095567;28;20193;-88
2021/05/30 12:31:11;;;;;;;3.25;2.10;;;24.50;71.70;;;;;;5076936;28;20273;-85
2021/05/30 12:34:06;;;;;;;2.58;2.38;;;24.30;71.50;;;;;;5093082;28;20289;-86
2021/05/30 12:36:33;;;;;;;4.43;3.10;;;24.20;73.40;;;;;;5096671;28;20319;-85
2021/05/30 12:39:01;;;;;;;2.90;2.70;;;23.90;76.70;;;;;;5094726;28;20209;-85